Terminal Aerodrome Forecast
Issued by NWS

Home | Current Version | Previous Version | Text Only | Print | Product List | Glossary On
Versions: 1 2 3 4 5 6 7 8 9 10 11 12 13 14 15 16 17 18 19 20
000
FTUS43 KOAX 260200 AAA
TAFSNY
TAF AMD
KSNY 260219Z 2602/2624 33012G22KT P6SM -SHRA SCT070 BKN150
     FM260400 28009KT P6SM SCT110
     FM261600 02012G22KT P6SM SCT070=

USA.gov is the U.S. government's official web portal to all federal, state and local government web resources and services.